createdAt,value
2022-12-24T00:04:08.206Z,12.60
2022-12-24T00:09:05.226Z,12.70
2022-12-24T00:14:05.908Z,12.60
2022-12-24T00:26:34.230Z,12.40
2022-12-24T00:31:33.442Z,12.30
2022-12-24T00:44:01.194Z,12.40
2022-12-24T00:46:32.036Z,12.30
2022-12-24T00:49:02.025Z,12.40
2022-12-24T00:51:33.379Z,12.50
2022-12-24T01:01:33.622Z,12.50
2022-12-24T01:16:40.902Z,12.30
2022-12-24T01:26:38.693Z,12.20
2022-12-24T01:34:05.584Z,12.10
2022-12-24T01:41:50.821Z,12.10
2022-12-24T01:44:31.536Z,12.00
2022-12-24T01:47:09.159Z,12.00
2022-12-24T01:49:40.683Z,11.70
2022-12-24T01:52:12.804Z,11.90
2022-12-24T01:54:47.686Z,11.80
2022-12-24T01:57:19.400Z,12.10
2022-12-24T01:59:51.008Z,11.70
2022-12-24T02:04:56.097Z,11.60
2022-12-24T02:09:57.946Z,11.60
2022-12-24T02:15:01.327Z,11.80
2022-12-24T02:17:36.213Z,11.70
2022-12-24T02:20:33.145Z,11.90
2022-12-24T02:23:19.610Z,11.80
2022-12-24T02:26:04.085Z,11.70
2022-12-24T02:28:51.253Z,11.80
2022-12-24T02:31:27.593Z,11.80
2022-12-24T02:34:00.659Z,11.80
2022-12-24T02:36:35.980Z,12.00
2022-12-24T02:39:08.136Z,11.80
2022-12-24T02:41:53.725Z,11.80
2022-12-24T02:44:26.083Z,11.90
2022-12-24T02:46:57.719Z,11.90
2022-12-24T02:57:09.467Z,11.80
2022-12-24T02:59:52.921Z,12.10
2022-12-24T03:02:30.612Z,11.70
2022-12-24T03:05:07.121Z,11.70
2022-12-24T03:07:41.805Z,11.60
2022-12-24T03:10:19.538Z,11.50
2022-12-24T03:12:52.135Z,11.40
2022-12-24T03:15:25.107Z,11.40
2022-12-24T03:17:59.641Z,11.30
2022-12-24T03:20:36.985Z,11.20
2022-12-24T03:23:15.461Z,11.50
2022-12-24T03:25:45.762Z,11.30
2022-12-24T03:28:16.365Z,11.30
2022-12-24T03:30:46.248Z,11.30
2022-12-24T03:33:16.015Z,11.30
2022-12-24T03:50:37.680Z,11.40
2022-12-24T04:07:59.813Z,13.40
2022-12-24T04:10:30.287Z,11.60
2022-12-24T04:23:02.605Z,11.20
2022-12-24T04:40:22.086Z,11.30
2022-12-24T04:57:51.173Z,11.20
2022-12-24T05:00:21.577Z,12.50
2022-12-24T05:12:46.299Z,11.30
2022-12-24T05:28:16.506Z,11.30
2022-12-24T05:45:40.524Z,11.20
2022-12-24T06:03:01.736Z,11.10
2022-12-24T06:20:24.831Z,11.00
2022-12-24T06:37:47.427Z,10.90
2022-12-24T06:45:12.979Z,11.10
2022-12-24T06:50:13.919Z,10.90
2022-12-24T06:55:14.923Z,11.00
2022-12-24T07:00:12.860Z,13.10
2022-12-24T07:02:42.577Z,11.90
2022-12-24T07:07:40.643Z,12.90
2022-12-24T07:10:13.062Z,11.00
2022-12-24T07:15:12.793Z,11.10
2022-12-24T07:17:42.024Z,11.20
2022-12-24T07:20:15.099Z,11.20
2022-12-24T07:22:44.570Z,11.20
2022-12-24T07:25:15.477Z,11.30
2022-12-24T07:30:13.151Z,11.50
2022-12-24T07:35:10.907Z,11.20
2022-12-24T07:40:09.896Z,11.20
2022-12-24T07:42:39.404Z,11.20
2022-12-24T07:45:08.693Z,11.20
2022-12-24T07:47:37.639Z,11.10
2022-12-24T07:50:07.303Z,11.00
2022-12-24T08:00:02.677Z,11.00
2022-12-24T08:02:33.280Z,10.90
2022-12-24T08:17:32.181Z,11.10
2022-12-24T08:27:28.572Z,11.10
2022-12-24T08:32:28.270Z,11.20
2022-12-24T08:49:47.912Z,11.30
2022-12-24T09:02:17.155Z,11.60
2022-12-24T09:07:16.163Z,11.30
2022-12-24T09:19:38.592Z,11.40
2022-12-24T09:24:37.299Z,11.30
2022-12-24T09:27:06.242Z,11.20
2022-12-24T09:42:16.750Z,12.00
2022-12-24T09:44:48.557Z,12.20
2022-12-24T09:47:27.927Z,12.30
2022-12-24T09:50:02.974Z,12.40
2022-12-24T09:52:36.248Z,12.60
2022-12-24T09:55:17.519Z,12.70
2022-12-24T09:57:49.116Z,12.90
2022-12-24T10:00:22.440Z,13.00
2022-12-24T10:05:27.425Z,13.60
2022-12-24T10:08:03.914Z,13.20
2022-12-24T10:10:38.551Z,13.20
2022-12-24T10:13:16.224Z,13.20
2022-12-24T10:15:54.839Z,13.00
2022-12-24T10:18:36.157Z,13.00
2022-12-24T10:21:14.009Z,13.00
2022-12-24T10:23:47.752Z,15.60
2022-12-24T10:26:25.993Z,13.10
2022-12-24T10:29:00.142Z,13.10
2022-12-24T10:31:33.630Z,13.10
2022-12-24T10:34:07.060Z,13.10
2022-12-24T10:41:38.442Z,13.40
2022-12-24T10:44:08.358Z,13.40
2022-12-24T10:46:41.656Z,13.80
2022-12-24T10:49:15.526Z,13.50
2022-12-24T10:51:49.616Z,13.50
2022-12-24T10:54:26.629Z,13.50
2022-12-24T10:57:02.768Z,13.40
2022-12-24T10:59:39.175Z,13.40
2022-12-24T11:02:28.941Z,13.40
2022-12-24T11:10:00.484Z,13.20
2022-12-24T11:12:31.683Z,13.00
2022-12-24T11:15:16.232Z,13.30
2022-12-24T11:17:53.850Z,13.10
2022-12-24T11:20:26.759Z,13.20
2022-12-24T11:22:57.041Z,13.20
2022-12-24T11:25:30.370Z,13.20
2022-12-24T11:30:33.900Z,13.40
2022-12-24T11:33:18.702Z,13.40
2022-12-24T11:35:50.365Z,12.10
2022-12-24T11:38:25.137Z,13.50
2022-12-24T11:41:07.763Z,13.40
2022-12-24T11:43:48.012Z,13.50
2022-12-24T11:46:35.632Z,13.40
2022-12-24T11:49:26.485Z,13.90
2022-12-24T11:52:31.326Z,13.30
2022-12-24T11:55:18.597Z,13.30
2022-12-24T11:57:56.325Z,13.40
2022-12-24T12:03:03.479Z,13.60
2022-12-24T12:05:35.654Z,13.60
2022-12-24T12:08:12.057Z,13.60
2022-12-24T12:10:44.846Z,13.50
2022-12-24T12:13:16.267Z,13.60
2022-12-24T12:15:49.684Z,13.60
2022-12-24T12:18:22.824Z,13.60
2022-12-24T12:20:55.172Z,13.40
2022-12-24T12:23:32.167Z,13.50
2022-12-24T12:26:02.993Z,13.50
2022-12-24T12:28:38.701Z,13.40
2022-12-24T12:31:16.342Z,13.40
2022-12-24T12:33:50.840Z,13.40
2022-12-24T12:36:24.018Z,13.30
2022-12-24T12:38:53.058Z,12.70
2022-12-24T12:41:39.700Z,13.60
2022-12-24T12:44:36.177Z,13.80
2022-12-24T12:47:17.507Z,13.80
2022-12-24T12:49:54.044Z,13.70
2022-12-24T12:52:32.879Z,13.80
2022-12-24T12:55:22.232Z,13.70
2022-12-24T12:57:56.000Z,13.70
2022-12-24T13:03:04.576Z,13.50
2022-12-24T13:05:55.095Z,13.50
2022-12-24T13:08:47.923Z,13.30
2022-12-24T13:11:37.226Z,13.30
2022-12-24T13:14:21.603Z,13.40
2022-12-24T13:17:18.549Z,13.30
2022-12-24T13:20:07.416Z,13.10
2022-12-24T13:22:37.067Z,13.10
2022-12-24T13:25:06.210Z,13.00
2022-12-24T13:27:36.430Z,12.90
2022-12-24T13:30:10.267Z,12.80
2022-12-24T13:32:52.782Z,12.80
2022-12-24T13:35:42.131Z,12.70
2022-12-24T13:38:43.269Z,12.60
2022-12-24T13:41:54.879Z,12.50
2022-12-24T13:44:33.048Z,12.60
2022-12-24T13:47:26.839Z,12.50
2022-12-24T13:50:01.049Z,12.50
2022-12-24T13:52:32.020Z,12.50
2022-12-24T13:55:18.461Z,12.50
2022-12-24T13:57:54.312Z,12.40
2022-12-24T14:00:40.086Z,12.40
2022-12-24T14:03:28.118Z,12.30
2022-12-24T14:06:00.532Z,12.20
2022-12-24T14:08:40.929Z,12.40
2022-12-24T14:11:14.631Z,12.40
2022-12-24T14:14:29.163Z,12.50
2022-12-24T14:17:02.881Z,12.60
2022-12-24T14:19:40.479Z,12.70
2022-12-24T14:22:22.425Z,12.60
2022-12-24T14:24:56.297Z,12.50
2022-12-24T14:27:34.739Z,12.50
2022-12-24T14:30:08.669Z,12.30
2022-12-24T14:32:39.684Z,12.30
2022-12-24T14:35:17.155Z,12.30
2022-12-24T14:37:48.431Z,12.30
2022-12-24T14:40:19.024Z,12.30
2022-12-24T14:42:58.776Z,12.20
2022-12-24T14:45:32.934Z,12.10
2022-12-24T14:48:13.593Z,12.10
2022-12-24T14:50:58.142Z,12.00
2022-12-24T14:53:49.251Z,12.00
2022-12-24T14:56:20.512Z,11.90
2022-12-24T14:58:50.087Z,11.90
2022-12-24T15:01:26.227Z,11.90
2022-12-24T15:04:08.051Z,11.80
2022-12-24T15:06:39.961Z,11.70
2022-12-24T15:09:15.543Z,11.70
2022-12-24T15:11:46.811Z,11.60
2022-12-24T15:14:17.302Z,11.70
2022-12-24T15:16:54.803Z,11.50
2022-12-24T15:19:28.139Z,11.60
2022-12-24T15:21:57.116Z,11.60
2022-12-24T15:24:27.174Z,11.50
2022-12-24T15:29:28.939Z,11.40
2022-12-24T15:32:01.204Z,11.40
2022-12-24T15:34:32.322Z,11.30
2022-12-24T15:37:10.943Z,11.30
2022-12-24T15:39:42.570Z,11.20
2022-12-24T15:42:15.975Z,10.90
2022-12-24T15:44:50.869Z,11.20
2022-12-24T15:47:22.647Z,11.10
2022-12-24T15:49:54.330Z,11.90
2022-12-24T15:52:26.523Z,11.10
2022-12-24T15:54:58.338Z,10.70
2022-12-24T15:57:32.495Z,11.10
2022-12-24T16:00:03.237Z,11.00
2022-12-24T16:02:38.307Z,8.90
2022-12-24T16:05:30.592Z,11.00
2022-12-24T16:08:34.696Z,11.00
2022-12-24T16:11:19.999Z,11.10
2022-12-24T16:14:17.044Z,11.00
2022-12-24T16:16:52.288Z,11.00
2022-12-24T16:19:25.309Z,10.90
2022-12-24T16:21:56.165Z,11.00
2022-12-24T16:24:27.859Z,10.90
2022-12-24T16:29:27.532Z,10.90
2022-12-24T16:31:59.467Z,10.80
2022-12-24T16:34:30.520Z,10.90
2022-12-24T16:36:59.556Z,10.80
2022-12-24T16:39:32.338Z,9.10
2022-12-24T16:42:19.598Z,10.80
2022-12-24T16:44:49.764Z,10.80
2022-12-24T16:47:25.820Z,11.90
2022-12-24T16:52:27.677Z,10.80
2022-12-24T16:54:55.884Z,10.50
2022-12-24T17:02:25.948Z,10.80
2022-12-24T17:14:50.993Z,10.80
2022-12-24T17:17:24.756Z,10.80
2022-12-24T17:19:56.045Z,10.80
2022-12-24T17:22:25.010Z,10.80
2022-12-24T17:24:53.091Z,10.70
2022-12-24T17:27:21.642Z,10.80
2022-12-24T17:29:49.741Z,10.80
2022-12-24T17:32:18.084Z,10.80
2022-12-24T17:34:50.364Z,10.70
2022-12-24T17:37:18.333Z,10.80
2022-12-24T17:39:47.098Z,10.80
2022-12-24T17:42:15.244Z,10.70
2022-12-24T17:44:43.135Z,10.70
2022-12-24T17:47:12.619Z,10.70
2022-12-24T17:49:41.174Z,10.70
2022-12-24T17:52:12.145Z,10.60
2022-12-24T17:54:40.390Z,10.60
2022-12-24T17:57:08.969Z,10.60
2022-12-24T17:59:37.663Z,10.70
2022-12-24T18:02:05.907Z,10.70
2022-12-24T18:04:34.488Z,10.60
2022-12-24T18:07:03.487Z,10.60
2022-12-24T18:09:33.239Z,10.70
2022-12-24T18:12:01.936Z,10.60
2022-12-24T18:14:29.907Z,10.60
2022-12-24T18:16:58.150Z,10.60
2022-12-24T18:19:27.246Z,10.60
2022-12-24T18:21:56.252Z,10.60
2022-12-24T18:24:24.767Z,10.60
2022-12-24T18:26:55.430Z,10.60
2022-12-24T18:29:23.620Z,10.50
2022-12-24T18:31:53.200Z,10.60
2022-12-24T18:34:22.544Z,10.60
2022-12-24T18:36:55.076Z,10.60
2022-12-24T18:39:24.499Z,10.60
2022-12-24T18:41:54.078Z,10.60
2022-12-24T18:44:25.330Z,10.60
2022-12-24T18:46:54.510Z,10.70
2022-12-24T18:49:23.330Z,10.70
2022-12-24T18:51:51.759Z,10.60
2022-12-24T18:54:19.878Z,10.60
2022-12-24T18:56:51.513Z,10.60
2022-12-24T18:59:21.299Z,10.50
2022-12-24T19:01:49.564Z,10.50
2022-12-24T19:04:18.413Z,10.50
2022-12-24T19:06:52.967Z,10.50
2022-12-24T19:09:23.892Z,10.50
2022-12-24T19:11:51.971Z,10.50
2022-12-24T19:14:21.476Z,10.50
2022-12-24T19:16:51.334Z,10.50
2022-12-24T19:19:24.442Z,10.50
2022-12-24T19:21:52.592Z,10.50
2022-12-24T19:24:20.657Z,10.50
2022-12-24T19:26:49.493Z,10.50
2022-12-24T19:29:18.188Z,10.40
2022-12-24T19:31:48.330Z,10.40
2022-12-24T19:34:16.941Z,10.40
2022-12-24T19:36:48.061Z,10.40
2022-12-24T19:39:16.940Z,10.40
2022-12-24T19:41:45.962Z,10.40
2022-12-24T19:44:13.857Z,10.30
2022-12-24T19:46:42.084Z,10.40
2022-12-24T19:49:13.241Z,10.30
2022-12-24T19:51:41.701Z,10.30
2022-12-24T19:54:18.571Z,10.20
2022-12-24T19:56:48.968Z,10.30
2022-12-24T19:59:19.029Z,10.30
2022-12-24T20:01:47.611Z,10.30
2022-12-24T20:04:18.863Z,10.20
2022-12-24T20:06:47.934Z,10.20
2022-12-24T20:09:17.250Z,10.10
2022-12-24T20:11:45.515Z,10.20
2022-12-24T20:14:15.889Z,10.20
2022-12-24T20:16:44.159Z,10.20
2022-12-24T20:19:17.140Z,10.20
2022-12-24T20:21:46.899Z,10.20
2022-12-24T20:24:14.924Z,10.20
2022-12-24T20:26:43.278Z,10.20
2022-12-24T20:29:12.665Z,10.20
2022-12-24T20:31:41.779Z,10.10
2022-12-24T20:34:10.901Z,10.10
2022-12-24T20:36:39.301Z,10.20
2022-12-24T20:39:09.405Z,10.20
2022-12-24T20:41:38.526Z,10.30
2022-12-24T20:44:08.395Z,10.30
2022-12-24T20:46:36.627Z,10.30
2022-12-24T20:49:05.285Z,10.30
2022-12-24T20:51:33.650Z,10.30
2022-12-24T20:54:06.333Z,10.20
2022-12-24T20:56:36.019Z,10.30
2022-12-24T20:59:04.622Z,10.20
2022-12-24T21:01:34.392Z,10.20
2022-12-24T21:04:06.874Z,10.20
2022-12-24T21:06:36.754Z,10.20
2022-12-24T21:09:07.066Z,10.20
2022-12-24T21:11:53.859Z,10.20
2022-12-24T21:14:24.755Z,10.20
2022-12-24T21:16:54.842Z,10.10
2022-12-24T21:19:25.337Z,10.10
2022-12-24T21:21:53.457Z,10.10
2022-12-24T21:24:22.350Z,10.10
2022-12-24T21:26:51.859Z,10.10
2022-12-24T21:29:20.064Z,10.10
2022-12-24T21:31:50.471Z,10.10
2022-12-24T21:34:18.825Z,10.10
2022-12-24T21:36:47.353Z,10.10
2022-12-24T21:39:16.129Z,10.10
2022-12-24T21:41:44.312Z,10.10
2022-12-24T21:44:13.802Z,10.10
2022-12-24T21:46:42.327Z,10.20
2022-12-24T21:49:29.354Z,10.10
2022-12-24T21:51:57.870Z,10.00
2022-12-24T21:54:30.417Z,10.00
2022-12-24T21:57:18.691Z,10.00
2022-12-24T21:59:51.862Z,10.00
2022-12-24T22:02:20.833Z,10.00
2022-12-24T22:04:51.031Z,10.00
2022-12-24T22:07:41.683Z,10.00
2022-12-24T22:10:29.552Z,10.00
2022-12-24T22:12:59.415Z,9.90
2022-12-24T22:15:32.044Z,9.90
2022-12-24T22:18:00.224Z,9.90
2022-12-24T22:20:28.289Z,9.90
2022-12-24T22:22:57.937Z,9.90
2022-12-24T22:25:28.366Z,9.90
2022-12-24T22:27:56.393Z,9.80
2022-12-24T22:30:26.202Z,9.90
2022-12-24T22:32:56.043Z,9.90
2022-12-24T22:35:25.802Z,9.90
2022-12-24T22:37:59.621Z,9.90
2022-12-24T22:40:28.542Z,9.90
2022-12-24T22:42:57.310Z,9.90
2022-12-24T22:45:25.202Z,10.00
2022-12-24T22:47:53.292Z,9.90
2022-12-24T22:50:23.824Z,9.90
2022-12-24T22:52:52.771Z,9.80
2022-12-24T22:55:21.706Z,9.80
2022-12-24T22:57:50.246Z,9.80
2022-12-24T23:00:43.372Z,9.80
2022-12-24T23:03:13.567Z,9.80
2022-12-24T23:05:43.723Z,9.70
2022-12-24T23:08:13.553Z,9.70
2022-12-24T23:10:41.964Z,9.70
2022-12-24T23:13:29.670Z,9.70
2022-12-24T23:16:04.190Z,10.60
2022-12-24T23:18:32.852Z,9.70
2022-12-24T23:21:07.659Z,9.70
2022-12-24T23:23:38.460Z,9.70
2022-12-24T23:26:08.608Z,9.70
2022-12-24T23:28:39.430Z,9.70
2022-12-24T23:31:13.895Z,9.70
2022-12-24T23:33:44.079Z,9.70
2022-12-24T23:36:15.062Z,9.70
2022-12-24T23:38:43.245Z,9.70
2022-12-24T23:41:12.173Z,9.70
2022-12-24T23:43:41.119Z,9.70
2022-12-24T23:46:09.255Z,9.70
2022-12-24T23:48:37.541Z,9.70
2022-12-24T23:51:07.612Z,9.70
2022-12-24T23:53:37.867Z,9.70
2022-12-24T23:56:07.421Z,9.80
2022-12-24T23:58:35.517Z,9.30
